Wetterdaten: Woche 17.04.06 - 23.04.06 (KW16)
Datum Zeit Temperatur Luftfeuchte Luftdruck Niederschlag Wind Richtung Sonne Solar Taupunkt Windchill
17.04.2006 00:00 9.2 C 88 % 1017.3 hPa 0.0 l/m 0.0 km/h (0 Bft) N 0.00 h 0 W/m 7.3 C 9.2 C
17.04.2006 01:00 8.9 C 89 % 1016.9 hPa 0.0 l/m 0.0 km/h (0 Bft) N 0.00 h 0 W/m 7.2 C 8.9 C
17.04.2006 02:00 8.4 C 93 % 1016.3 hPa 0.0 l/m 0.0 km/h (0 Bft) N 0.00 h 0 W/m 7.3 C 8.4 C
17.04.2006 03:00 8.2 C 94 % 1016.1 hPa 0.0 l/m 0.0 km/h (0 Bft) N 0.00 h 0 W/m 7.3 C 8.2 C
17.04.2006 04:00 7.8 C 96 % 1015.4 hPa 0.0 l/m 0.3 km/h (0 Bft) O-SO 0.00 h 0 W/m 7.2 C 7.8 C
17.04.2006 05:00 6.7 C 98 % 1015.5 hPa 0.0 l/m 0.5 km/h (0 Bft) O-SO 0.00 h 0 W/m 6.4 C 6.7 C
17.04.2006 06:00 6.6 C 100 % 1015.6 hPa 0.0 l/m 0.5 km/h (0 Bft) SO 0.00 h 13 W/m 6.6 C 6.6 C
17.04.2006 07:00 6.7 C 100 % 1015.5 hPa 0.0 l/m 1.1 km/h (0 Bft) O-SO 0.00 h 40 W/m 6.7 C 6.6 C
17.04.2006 08:00 7.1 C 100 % 1015.5 hPa 0.0 l/m 0.0 km/h (0 Bft) N 0.00 h 90 W/m 7.1 C 7.1 C
17.04.2006 09:00 8.2 C 99 % 1015.3 hPa 0.0 l/m 0.0 km/h (0 Bft) N 0.07 h 187 W/m 8.0 C 8.2 C
17.04.2006 10:00 9.9 C 84 % 1015.1 hPa 0.0 l/m 0.0 km/h (0 Bft) N 0.53 h 445 W/m 7.3 C 9.9 C
17.04.2006 11:00 12.8 C 67 % 1013.9 hPa 0.0 l/m 0.3 km/h (0 Bft) O-SO 0.97 h 697 W/m 6.9 C 12.8 C
17.04.2006 12:00 15.2 C 52 % 1013.3 hPa 0.0 l/m 3.0 km/h (1 Bft) W-NW 0.93 h 792 W/m 5.4 C 15.2 C
17.04.2006 13:00 15.8 C 47 % 1012.6 hPa 0.0 l/m 13.1 km/h (3 Bft) NW 0.52 h 563 W/m 4.7 C 15.8 C
17.04.2006 14:00 15.1 C 49 % 1012.4 hPa 0.0 l/m 12.0 km/h (2 Bft) NW 0.13 h 411 W/m 4.6 C 15.1 C
17.04.2006 15:00 15.2 C 49 % 1012.3 hPa 0.0 l/m 11.2 km/h (2 Bft) W-NW 0.00 h 334 W/m 4.4 C 15.2 C
17.04.2006 16:00 14.5 C 50 % 1012.4 hPa 0.0 l/m 13.2 km/h (3 Bft) NW 0.00 h 190 W/m 4.2 C 14.5 C
17.04.2006 17:00 13.4 C 56 % 1012.3 hPa 0.0 l/m 7.4 km/h (2 Bft) NW 0.00 h 89 W/m 4.7 C 13.4 C
17.04.2006 18:00 12.6 C 60 % 1012.7 hPa 0.0 l/m 14.4 km/h (3 Bft) NW 0.00 h 53 W/m 5.2 C 12.6 C
17.04.2006 19:00 11.7 C 64 % 1012.8 hPa 0.0 l/m 2.2 km/h (1 Bft) NW 0.00 h 32 W/m 5.0 C 11.7 C
17.04.2006 20:00 11.0 C 68 % 1012.9 hPa 0.0 l/m 0.0 km/h (0 Bft) N 0.00 h 5 W/m 5.4 C 11.0 C
17.04.2006 21:00 10.8 C 69 % 1013.9 hPa 0.0 l/m 0.0 km/h (0 Bft) N 0.00 h 0 W/m 5.3 C 10.8 C
17.04.2006 22:00 10.1 C 74 % 1014.0 hPa 0.0 l/m 0.0 km/h (0 Bft) N 0.00 h 0 W/m 5.7 C 10.1 C
17.04.2006 23:00 9.4 C 84 % 1014.4 hPa 0.0 l/m 0.0 km/h (0 Bft) N 0.00 h 0 W/m 6.7 C 9.4 C
18.04.2006 00:00 8.9 C 90 % 1015.2 hPa 0.0 l/m 0.0 km/h (0 Bft) N 0.00 h 0 W/m 7.3 C 8.9 C
18.04.2006 01:00 8.9 C 93 % 1015.2 hPa 0.0 l/m 0.0 km/h (0 Bft) N 0.00 h 0 W/m 7.7 C 8.9 C
18.04.2006 02:00 8.7 C 95 % 1014.6 hPa 0.3 l/m 0.0 km/h (0 Bft) N 0.00 h 0 W/m 7.9 C 8.7 C
18.04.2006 03:00 8.4 C 97 % 1014.3 hPa 0.0 l/m 0.0 km/h (0 Bft) N 0.00 h 0 W/m 7.9 C 8.4 C
18.04.2006 04:00 8.1 C 98 % 1014.5 hPa 0.0 l/m 0.0 km/h (0 Bft) N 0.00 h 0 W/m 7.8 C 8.1 C
18.04.2006 05:00 8.0 C 99 % 1015.2 hPa 0.0 l/m 0.0 km/h (0 Bft) N 0.00 h 0 W/m 7.8 C 8.0 C
18.04.2006 06:00 8.0 C 99 % 1014.9 hPa 0.0 l/m 0.0 km/h (0 Bft) N 0.00 h 2 W/m 7.9 C 8.0 C
18.04.2006 07:00 8.1 C 99 % 1015.3 hPa 0.0 l/m 0.0 km/h (0 Bft) N 0.00 h 10 W/m 8.0 C 8.1 C
18.04.2006 08:00 8.5 C 99 % 1015.3 hPa 0.0 l/m 0.0 km/h (0 Bft) N 0.00 h 53 W/m 8.4 C 8.5 C
18.04.2006 09:00 9.2 C 95 % 1015.2 hPa 0.0 l/m 0.0 km/h (0 Bft) N 0.00 h 144 W/m 8.5 C 9.2 C
18.04.2006 10:00 10.2 C 85 % 1015.9 hPa 0.0 l/m 0.0 km/h (0 Bft) N 0.35 h 349 W/m 7.8 C 10.2 C
18.04.2006 11:00 13.0 C 68 % 1015.1 hPa 0.0 l/m 0.4 km/h (0 Bft) O-SO 1.00 h 737 W/m 7.4 C 13.0 C
18.04.2006 12:00 14.7 C 56 % 1014.5 hPa 0.0 l/m 1.8 km/h (1 Bft) SO 0.68 h 664 W/m 5.8 C 14.7 C
18.04.2006 13:00 13.9 C 52 % 1014.6 hPa 0.0 l/m 0.0 km/h (0 Bft) N 0.00 h 279 W/m 4.3 C 13.9 C
18.04.2006 14:00 14.3 C 50 % 1014.5 hPa 0.0 l/m 0.5 km/h (0 Bft) N-NW 0.13 h 341 W/m 4.0 C 14.3 C
18.04.2006 15:00 14.3 C 49 % 1014.0 hPa 0.0 l/m 0.1 km/h (0 Bft) N 0.12 h 293 W/m 3.7 C 14.3 C
18.04.2006 16:00 16.5 C 42 % 1013.2 hPa 0.0 l/m 0.9 km/h (0 Bft) O-SO 1.00 h 514 W/m 3.6 C 16.5 C
18.04.2006 17:00 17.2 C 39 % 1012.3 hPa 0.0 l/m 1.7 km/h (1 Bft) W-NW 0.88 h 409 W/m 3.1 C 17.2 C
18.04.2006 18:00 16.5 C 37 % 1012.1 hPa 0.0 l/m 3.7 km/h (1 Bft) NW 0.37 h 179 W/m 1.9 C 16.5 C
18.04.2006 19:00 15.0 C 44 % 1013.2 hPa 0.0 l/m 2.4 km/h (1 Bft) NW 0.13 h 59 W/m 2.7 C 15.0 C
18.04.2006 20:00 13.6 C 51 % 1013.6 hPa 0.0 l/m 0.1 km/h (0 Bft) N 0.00 h 8 W/m 3.6 C 13.6 C
18.04.2006 21:00 12.2 C 60 % 1014.7 hPa 0.0 l/m 0.2 km/h (0 Bft) O-SO 0.00 h 0 W/m 4.7 C 12.2 C
18.04.2006 22:00 11.1 C 67 % 1014.9 hPa 0.0 l/m 0.0 km/h (0 Bft) N 0.00 h 0 W/m 5.3 C 11.1 C
18.04.2006 23:00 11.2 C 60 % 1014.9 hPa 0.0 l/m 0.0 km/h (0 Bft) N 0.00 h 0 W/m 3.6 C 11.2 C
19.04.2006 00:00 10.8 C 57 % 1015.2 hPa 0.0 l/m 0.0 km/h (0 Bft) N 0.00 h 0 W/m 2.6 C 10.8 C
19.04.2006 01:00 10.0 C 63 % 1015.6 hPa 0.0 l/m 0.0 km/h (0 Bft) N 0.00 h 0 W/m 3.2 C 10.0 C
19.04.2006 02:00 8.8 C 73 % 1015.6 hPa 0.0 l/m 0.0 km/h (0 Bft) N 0.00 h 0 W/m 4.3 C 8.8 C
19.04.2006 03:00 8.3 C 77 % 1015.3 hPa 0.0 l/m 0.0 km/h (0 Bft) N 0.00 h 0 W/m 4.4 C 8.3 C
19.04.2006 04:00 7.8 C 79 % 1015.4 hPa 0.0 l/m 0.0 km/h (0 Bft) N 0.00 h 0 W/m 4.4 C 7.8 C
19.04.2006 05:00 6.4 C 86 % 1015.6 hPa 0.0 l/m 0.0 km/h (0 Bft) N 0.00 h 0 W/m 4.2 C 6.4 C
19.04.2006 06:00 5.4 C 88 % 1015.8 hPa 0.0 l/m 0.0 km/h (0 Bft) N 0.00 h 15 W/m 3.5 C 5.4 C
19.04.2006 07:00 5.4 C 89 % 1016.8 hPa 0.0 l/m 0.0 km/h (0 Bft) N 0.00 h 60 W/m 3.6 C 5.4 C
19.04.2006 08:00 7.1 C 82 % 1016.5 hPa 0.0 l/m 0.0 km/h (0 Bft) N 0.17 h 174 W/m 4.3 C 7.1 C
19.04.2006 09:00 9.2 C 70 % 1016.2 hPa 0.0 l/m 0.0 km/h (0 Bft) N 1.00 h 424 W/m 4.1 C 9.2 C
19.04.2006 10:00 11.2 C 59 % 1016.0 hPa 0.0 l/m 0.5 km/h (0 Bft) NW 1.00 h 569 W/m 3.5 C 11.2 C
19.04.2006 11:00 13.9 C 48 % 1015.0 hPa 0.0 l/m 0.2 km/h (0 Bft) S-SW 1.00 h 684 W/m 3.0 C 13.9 C
19.04.2006 12:00 15.6 C 43 % 1014.3 hPa 0.0 l/m 0.7 km/h (0 Bft) NO 1.00 h 760 W/m 3.2 C 15.6 C
19.04.2006 13:00 16.4 C 42 % 1014.2 hPa 0.0 l/m 2.0 km/h (1 Bft) NW 1.00 h 774 W/m 3.4 C 16.4 C
19.04.2006 14:00 17.8 C 40 % 1013.0 hPa 0.0 l/m 1.9 km/h (1 Bft) NW 1.00 h 744 W/m 3.9 C 17.8 C
19.04.2006 15:00 18.9 C 36 % 1012.9 hPa 0.0 l/m 0.5 km/h (0 Bft) W-NW 1.00 h 614 W/m 3.6 C 18.9 C
19.04.2006 16:00 19.3 C 33 % 1012.1 hPa 0.0 l/m 0.4 km/h (0 Bft) W 1.00 h 478 W/m 2.6 C 19.3 C
19.04.2006 17:00 19.0 C 32 % 1011.8 hPa 0.0 l/m 2.1 km/h (1 Bft) W-NW 0.97 h 347 W/m 1.8 C 19.0 C
19.04.2006 18:00 18.2 C 33 % 1011.9 hPa 0.0 l/m 0.9 km/h (0 Bft) NW 0.47 h 177 W/m 1.8 C 18.2 C
19.04.2006 19:00 17.7 C 37 % 1012.0 hPa 0.0 l/m 0.7 km/h (0 Bft) W-NW 0.93 h 109 W/m 2.8 C 17.7 C
19.04.2006 20:00 14.5 C 48 % 1012.6 hPa 0.0 l/m 0.1 km/h (0 Bft) N 0.20 h 17 W/m 3.7 C 14.5 C
19.04.2006 21:00 12.1 C 59 % 1013.8 hPa 0.0 l/m 0.0 km/h (0 Bft) N 0.00 h 0 W/m 4.2 C 12.1 C
19.04.2006 22:00 9.8 C 71 % 1014.5 hPa 0.0 l/m 0.0 km/h (0 Bft) N 0.00 h 0 W/m 4.8 C 9.8 C
19.04.2006 23:00 8.6 C 77 % 1015.3 hPa 0.0 l/m 0.7 km/h (0 Bft) O-SO 0.00 h 0 W/m 4.8 C 8.6 C
20.04.2006 00:00 7.8 C 81 % 1015.4 hPa 0.0 l/m 0.0 km/h (0 Bft) N 0.00 h 0 W/m 4.8 C 7.8 C
20.04.2006 01:00 7.0 C 85 % 1015.5 hPa 0.0 l/m 0.0 km/h (0 Bft) N 0.00 h 0 W/m 4.7 C 7.0 C
20.04.2006 02:00 6.4 C 88 % 1015.6 hPa 0.0 l/m 0.0 km/h (0 Bft) N 0.00 h 0 W/m 4.6 C 6.4 C
20.04.2006 03:00 5.5 C 94 % 1015.7 hPa 0.0 l/m 0.0 km/h (0 Bft) N 0.00 h 0 W/m 4.5 C 5.5 C
20.04.2006 04:00 4.9 C 97 % 1015.8 hPa 0.0 l/m 0.0 km/h (0 Bft) N 0.00 h 0 W/m 4.5 C 4.9 C
20.04.2006 05:00 4.2 C 97 % 1015.9 hPa 0.0 l/m 0.0 km/h (0 Bft) N 0.00 h 0 W/m 3.8 C 4.2 C
20.04.2006 06:00 3.8 C 98 % 1016.3 hPa 0.0 l/m 0.0 km/h (0 Bft) N 0.00 h 17 W/m 3.5 C 3.8 C
20.04.2006 07:00 4.5 C 97 % 1016.9 hPa 0.0 l/m 0.0 km/h (0 Bft) N 0.47 h 98 W/m 4.0 C 4.5 C
20.04.2006 08:00 6.4 C 92 % 1017.1 hPa 0.0 l/m 0.0 km/h (0 Bft) N 0.97 h 253 W/m 5.2 C 6.4 C
20.04.2006 09:00 9.0 C 75 % 1017.3 hPa 0.0 l/m 0.0 km/h (0 Bft) N 0.87 h 384 W/m 4.8 C 9.0 C
20.04.2006 10:00 12.3 C 60 % 1016.9 hPa 0.0 l/m 0.0 km/h (0 Bft) N 1.00 h 580 W/m 4.7 C 12.3 C
20.04.2006 11:00 14.6 C 52 % 1016.0 hPa 0.0 l/m 0.3 km/h (0 Bft) O-SO 1.00 h 679 W/m 4.9 C 14.6 C
20.04.2006 12:00 16.4 C 45 % 1015.3 hPa 0.0 l/m 0.6 km/h (0 Bft) NW 0.90 h 691 W/m 4.5 C 16.4 C
20.04.2006 13:00 18.0 C 40 % 1014.2 hPa 0.0 l/m 0.5 km/h (0 Bft) NW 1.00 h 778 W/m 4.0 C 18.0 C
20.04.2006 14:00 18.9 C 37 % 1013.9 hPa 0.0 l/m 0.1 km/h (0 Bft) NO 0.60 h 515 W/m 4.0 C 18.9 C
20.04.2006 15:00 19.9 C 33 % 1013.7 hPa 0.0 l/m 0.6 km/h (0 Bft) SO 0.70 h 549 W/m 3.3 C 19.9 C
20.04.2006 16:00 21.0 C 30 % 1012.6 hPa 0.0 l/m 0.3 km/h (0 Bft) O-SO 1.00 h 551 W/m 2.9 C 21.0 C
20.04.2006 17:00 20.3 C 30 % 1012.7 hPa 0.0 l/m 0.0 km/h (0 Bft) W-NW 0.77 h 327 W/m 2.4 C 20.3 C
20.04.2006 18:00 19.9 C 32 % 1012.7 hPa 0.0 l/m 0.3 km/h (0 Bft) N 1.00 h 250 W/m 2.8 C 19.9 C
20.04.2006 19:00 18.5 C 33 % 1012.9 hPa 0.0 l/m 0.0 km/h (0 Bft) N 0.90 h 98 W/m 1.8 C 18.5 C
20.04.2006 20:00 15.5 C 48 % 1013.3 hPa 0.0 l/m 0.3 km/h (0 Bft) O-SO 0.10 h 15 W/m 4.2 C 15.5 C
20.04.2006 21:00 12.5 C 66 % 1014.3 hPa 0.0 l/m 1.7 km/h (1 Bft) O-SO 0.00 h 0 W/m 6.3 C 12.5 C
20.04.2006 22:00 10.5 C 74 % 1015.0 hPa 0.0 l/m 1.0 km/h (0 Bft) O-SO 0.00 h 0 W/m 6.1 C 10.5 C
20.04.2006 23:00 9.7 C 75 % 1015.1 hPa 0.0 l/m 0.2 km/h (0 Bft) O-SO 0.00 h 0 W/m 5.5 C 9.7 C
21.04.2006 00:00 8.4 C 79 % 1015.3 hPa 0.0 l/m 0.0 km/h (0 Bft) N 0.00 h 0 W/m 5.0 C 8.4 C
21.04.2006 01:00 7.4 C 88 % 1015.5 hPa 0.0 l/m 0.3 km/h (0 Bft) O-SO 0.00 h 0 W/m 5.4 C 7.4 C
21.04.2006 02:00 6.8 C 89 % 1015.5 hPa 0.0 l/m 0.0 km/h (0 Bft) N 0.00 h 0 W/m 5.1 C 6.8 C
21.04.2006 03:00 6.2 C 92 % 1015.6 hPa 0.0 l/m 0.0 km/h (0 Bft) N 0.00 h 0 W/m 5.0 C 6.2 C
21.04.2006 04:00 5.5 C 93 % 1015.7 hPa 0.0 l/m 0.0 km/h (0 Bft) N 0.00 h 0 W/m 4.4 C 5.5 C
21.04.2006 05:00 4.9 C 95 % 1015.8 hPa 0.0 l/m 0.0 km/h (0 Bft) N 0.00 h 0 W/m 4.2 C 4.9 C
21.04.2006 06:00 4.5 C 97 % 1015.9 hPa 0.0 l/m 0.0 km/h (0 Bft) N 0.03 h 18 W/m 4.0 C 4.5 C
21.04.2006 07:00 5.0 C 95 % 1016.6 hPa 0.0 l/m 0.0 km/h (0 Bft) N 0.57 h 106 W/m 4.2 C 5.0 C
21.04.2006 08:00 7.2 C 88 % 1016.5 hPa 0.0 l/m 0.0 km/h (0 Bft) N 1.00 h 279 W/m 5.4 C 7.2 C
21.04.2006 09:00 10.2 C 69 % 1016.1 hPa 0.0 l/m 0.0 km/h (0 Bft) N 1.00 h 438 W/m 4.9 C 10.2 C
21.04.2006 10:00 13.2 C 58 % 1015.7 hPa 0.0 l/m 0.0 km/h (0 Bft) N 1.00 h 578 W/m 5.1 C 13.2 C
21.04.2006 11:00 16.5 C 48 % 1015.3 hPa 0.0 l/m 0.2 km/h (0 Bft) NW 1.00 h 683 W/m 5.3 C 16.5 C
21.04.2006 12:00 18.5 C 42 % 1015.0 hPa 0.0 l/m 0.7 km/h (0 Bft) W-NW 1.00 h 750 W/m 5.2 C 18.5 C
21.04.2006 13:00 20.5 C 36 % 1014.7 hPa 0.0 l/m 2.0 km/h (1 Bft) NW 1.00 h 772 W/m 4.8 C 20.5 C
21.04.2006 14:00 22.3 C 29 % 1013.6 hPa 0.0 l/m 1.9 km/h (1 Bft) SO 1.00 h 750 W/m 3.3 C 22.3 C
21.04.2006 15:00 23.7 C 21 % 1013.3 hPa 0.0 l/m 1.5 km/h (1 Bft) SO 1.00 h 695 W/m 0.3 C 23.7 C
21.04.2006 16:00 24.4 C 20 % 1013.2 hPa 0.0 l/m 1.6 km/h (1 Bft) SO 1.00 h 592 W/m -0.0 C 24.4 C
21.04.2006 17:00 23.7 C 20 % 1012.3 hPa 0.0 l/m 0.5 km/h (0 Bft) N 1.00 h 420 W/m -0.6 C 23.7 C
21.04.2006 18:00 22.5 C 20 % 1012.4 hPa 0.0 l/m 0.0 km/h (0 Bft) N 1.00 h 284 W/m -1.5 C 22.5 C
21.04.2006 19:00 21.0 C 21 % 1012.6 hPa 0.0 l/m 0.0 km/h (0 Bft) N 0.83 h 113 W/m -2.1 C 21.0 C
21.04.2006 20:00 17.5 C 36 % 1013.4 hPa 0.0 l/m 0.8 km/h (0 Bft) O-SO 0.00 h 13 W/m 1.9 C 17.5 C
21.04.2006 21:00 14.0 C 53 % 1014.6 hPa 0.0 l/m 0.6 km/h (0 Bft) O-SO 0.00 h 0 W/m 4.6 C 14.0 C
21.04.2006 22:00 12.0 C 61 % 1015.5 hPa 0.0 l/m 0.1 km/h (0 Bft) N 0.00 h 0 W/m 4.7 C 12.0 C
21.04.2006 23:00 10.5 C 68 % 1016.1 hPa 0.0 l/m 1.1 km/h (1 Bft) O-SO 0.00 h 0 W/m 4.9 C 10.5 C
22.04.2006 00:00 9.3 C 71 % 1016.2 hPa 0.0 l/m 0.0 km/h (0 Bft) N 0.00 h 0 W/m 4.4 C 9.3 C
22.04.2006 01:00 8.1 C 77 % 1016.4 hPa 0.0 l/m 0.0 km/h (0 Bft) N 0.00 h 0 W/m 4.4 C 8.1 C
22.04.2006 02:00 7.5 C 83 % 1016.5 hPa 0.0 l/m 0.0 km/h (0 Bft) N 0.00 h 0 W/m 4.8 C 7.5 C
22.04.2006 03:00 6.9 C 85 % 1016.9 hPa 0.0 l/m 0.0 km/h (0 Bft) N 0.00 h 0 W/m 4.4 C 6.9 C
22.04.2006 04:00 6.2 C 91 % 1017.7 hPa 0.0 l/m 0.5 km/h (0 Bft) O-SO 0.00 h 0 W/m 4.9 C 6.2 C
22.04.2006 05:00 6.0 C 89 % 1017.7 hPa 0.0 l/m 0.9 km/h (0 Bft) O-SO 0.00 h 0 W/m 4.3 C 5.8 C
22.04.2006 06:00 5.5 C 92 % 1017.8 hPa 0.0 l/m 0.5 km/h (0 Bft) O-SO 0.03 h 19 W/m 4.3 C 5.4 C
22.04.2006 07:00 6.2 C 90 % 1018.4 hPa 0.0 l/m 0.0 km/h (0 Bft) N 0.37 h 106 W/m 4.7 C 6.2 C
22.04.2006 08:00 9.3 C 80 % 1018.3 hPa 0.0 l/m 0.5 km/h (0 Bft) O-SO 1.00 h 286 W/m 5.9 C 9.3 C
22.04.2006 09:00 13.1 C 62 % 1017.6 hPa 0.0 l/m 0.9 km/h (0 Bft) SO 1.00 h 449 W/m 6.0 C 13.1 C
22.04.2006 10:00 16.3 C 50 % 1017.2 hPa 0.0 l/m 3.9 km/h (1 Bft) W-NW 0.40 h 399 W/m 5.8 C 16.3 C
22.04.2006 11:00 17.4 C 45 % 1017.1 hPa 0.0 l/m 6.7 km/h (2 Bft) W-NW 0.60 h 537 W/m 5.4 C 17.4 C
22.04.2006 12:00 19.8 C 41 % 1015.9 hPa 0.0 l/m 4.4 km/h (1 Bft) W 1.00 h 749 W/m 6.0 C 19.8 C
22.04.2006 13:00 21.1 C 33 % 1015.0 hPa 0.0 l/m 1.4 km/h (1 Bft) W 0.93 h 738 W/m 4.0 C 21.1 C
22.04.2006 14:00 22.2 C 28 % 1014.5 hPa 0.0 l/m 4.8 km/h (1 Bft) W-NW 1.00 h 763 W/m 3.0 C 22.2 C
22.04.2006 15:00 22.6 C 28 % 1013.5 hPa 0.0 l/m 10.8 km/h (2 Bft) NW 1.00 h 688 W/m 3.2 C 22.6 C
22.04.2006 16:00 21.4 C 33 % 1013.6 hPa 0.0 l/m 4.8 km/h (1 Bft) NO 0.53 h 428 W/m 4.6 C 21.4 C
22.04.2006 17:00 21.0 C 37 % 1013.0 hPa 0.0 l/m 0.5 km/h (0 Bft) O 0.35 h 254 W/m 5.7 C 21.0 C
22.04.2006 18:00 18.9 C 45 % 1012.9 hPa 0.0 l/m 6.9 km/h (2 Bft) O-SO 0.00 h 70 W/m 6.7 C 18.9 C
22.04.2006 19:00 16.4 C 53 % 1013.9 hPa 0.0 l/m 4.4 km/h (1 Bft) SO 0.22 h 70 W/m 6.8 C 16.4 C
22.04.2006 20:00 14.2 C 61 % 1014.8 hPa 0.0 l/m 0.4 km/h (0 Bft) SO 0.03 h 15 W/m 6.8 C 14.2 C
22.04.2006 21:00 12.9 C 69 % 1015.7 hPa 0.0 l/m 0.0 km/h (0 Bft) N 0.00 h 0 W/m 7.3 C 12.9 C
22.04.2006 22:00 11.5 C 76 % 1015.9 hPa 0.0 l/m 0.2 km/h (0 Bft) O-SO 0.00 h 0 W/m 7.4 C 11.5 C
22.04.2006 23:00 10.9 C 79 % 1016.0 hPa 0.0 l/m 0.6 km/h (0 Bft) SO 0.00 h 0 W/m 7.4 C 10.9 C
23.04.2006 00:00 9.7 C 85 % 1016.2 hPa 0.0 l/m 0.0 km/h (0 Bft) N 0.00 h 0 W/m 7.4 C 9.7 C
23.04.2006 01:00 9.1 C 87 % 1016.2 hPa 0.0 l/m 0.0 km/h (0 Bft) N 0.00 h 0 W/m 7.2 C 9.1 C
23.04.2006 02:00 8.7 C 90 % 1016.3 hPa 0.0 l/m 0.4 km/h (0 Bft) O-SO 0.00 h 0 W/m 7.2 C 8.7 C
23.04.2006 03:00 9.1 C 93 % 1015.7 hPa 0.0 l/m 0.3 km/h (0 Bft) O-SO 0.00 h 0 W/m 8.0 C 9.1 C
23.04.2006 04:00 9.5 C 94 % 1016.0 hPa 0.0 l/m 1.5 km/h (1 Bft) O-SO 0.00 h 0 W/m 8.5 C 9.3 C
23.04.2006 05:00 9.6 C 95 % 1015.5 hPa 2.6 l/m 3.8 km/h (1 Bft) O-SO 0.00 h 0 W/m 8.7 C 9.1 C
23.04.2006 06:00 9.6 C 95 % 1015.7 hPa 0.6 l/m 0.8 km/h (0 Bft) O-SO 0.00 h 6 W/m 8.8 C 9.5 C
23.04.2006 07:00 9.7 C 96 % 1016.0 hPa 0.0 l/m 0.1 km/h (0 Bft) N 0.10 h 72 W/m 9.2 C 9.7 C
23.04.2006 08:00 10.7 C 94 % 1016.0 hPa 0.0 l/m 0.0 km/h (0 Bft) N 0.57 h 219 W/m 9.7 C 10.7 C
23.04.2006 09:00 12.3 C 85 % 1015.8 hPa 0.0 l/m 0.4 km/h (0 Bft) O-SO 0.90 h 436 W/m 10.0 C 12.3 C
23.04.2006 10:00 14.3 C 76 % 1015.6 hPa 0.0 l/m 4.3 km/h (1 Bft) SO 0.97 h 586 W/m 10.0 C 14.3 C
23.04.2006 11:00 16.3 C 66 % 1015.5 hPa 0.0 l/m 8.1 km/h (2 Bft) SO 1.00 h 710 W/m 9.9 C 16.3 C
23.04.2006 12:00 17.8 C 57 % 1015.1 hPa 0.0 l/m 3.1 km/h (1 Bft) W-NW 0.67 h 642 W/m 9.1 C 17.8 C
23.04.2006 13:00 18.8 C 49 % 1014.8 hPa 0.0 l/m 2.8 km/h (1 Bft) W-NW 0.73 h 697 W/m 7.9 C 18.8 C
23.04.2006 14:00 19.7 C 39 % 1013.8 hPa 0.0 l/m 18.3 km/h (3 Bft) W-NW 0.93 h 735 W/m 5.5 C 19.7 C
23.04.2006 15:00 20.9 C 33 % 1013.7 hPa 0.0 l/m 23.1 km/h (4 Bft) W-NW 1.02 h 732 W/m 3.8 C 20.9 C
23.04.2006 16:00 21.2 C 31 % 1013.6 hPa 0.0 l/m 20.0 km/h (4 Bft) NW 0.95 h 533 W/m 3.2 C 21.2 C
23.04.2006 17:00 20.7 C 29 % 1013.4 hPa 0.0 l/m 22.3 km/h (4 Bft) NW 0.80 h 370 W/m 2.1 C 20.7 C
23.04.2006 18:00 20.3 C 28 % 1012.8 hPa 0.0 l/m 20.0 km/h (4 Bft) NW 0.98 h 292 W/m 1.1 C 20.3 C
23.04.2006 19:00 19.0 C 29 % 1013.6 hPa 0.0 l/m 14.6 km/h (3 Bft) W-NW 0.97 h 137 W/m 0.8 C 19.0 C
23.04.2006 20:00 16.0 C 37 % 1014.3 hPa 0.0 l/m 1.8 km/h (1 Bft) W-NW 0.28 h 27 W/m 1.2 C 16.0 C
23.04.2006 21:00 13.5 C 47 % 1015.1 hPa 0.0 l/m 2.6 km/h (1 Bft) O-SO 0.00 h 0 W/m 2.4 C 13.5 C
23.04.2006 22:00 11.9 C 57 % 1016.0 hPa 0.0 l/m 0.4 km/h (0 Bft) O-SO 0.00 h 0 W/m 3.6 C 11.9 C
23.04.2006 23:00 10.1 C 69 % 1017.2 hPa 0.0 l/m 0.5 km/h (0 Bft) O-SO 0.00 h 0 W/m 4.6 C 10.1 C
Min-Datum _ 20.04.06 21.04.06 17.04.06 - 17.04.06 - - - 21.04.06 20.04.06
_ Min-Zeit 06:49 15:05 17:18 - 00:01 - - - 19:49 06:49
Minimum _ 3.6 C 20 % 1011.5 hPa - 0.0 km/h (0 Bft) - - - -3.4 C 3.6 C
Max-Datum _ 21.04.06 17.04.06 22.04.06 23.04.06 22.04.06 - 23.04.06 17.04.06 23.04.06 21.04.06
_ Max-Zeit 16:01 06:15 07:09 05:04 18:53 - 14:26 13:20 09:20 16:01
Maximum _ 24.9 C 100 % 1018.8 hPa 2.6 l/m 37.2 km/h
O-SO (5 Bft)
- 0.07 h 974 W/m 10.5 C 24.9 C
Durchschnitt _ 12.5 C 66 % 1014.9 hPa #3.6 l/m 1.9 km/h (1 Bft) NW #61:35 h 362 W/m 5.0 C 12.5 C
© Kaiko 2006